Blythe, CA

10:27 PM PDT on September 14, 2014 (GMT -0700)
Yuma Marine Corps Air Station | Change Station
CLOSE
Current Station
Airport
Location: Yuma MCAS,
Elevation: 213 ft
Nearby Weather Stations

Elev 213 ft 32.66 °N, 114.61 °W | Updated 30 minutes ago

Clear
Clear
97 °F
Feels Like 95 °F
N
6
Wind Variable Wind from WSW

Today
High -- | Low -- °F
--% Chance of Precip.
Yesterday
High -- | Low -- °F
Precip. -- in
6:21 AM 6:46 PM
Waning Gibbous, 59% visible
Pressure 29.69 in
Visibility 10.0 miles
Clouds Clear
Heat Index 95 °F
Dew Point 55 °F
Humidity 24%
Rainfall 0.00 in
Snow Depth 0 in , 0 in , 3 in
UV 0 out of 12
Pollen 8.30 out of 12
Ozone Good
Flu Activity Not available.
METAR KNYL 150457Z AUTO 25005KT 10SM CLR 36/13 A2970 RMK AO2 SLP052 T03610128

More Conditions Fewer Conditions

Pressure 29.69 in
Visibility 10.0 miles
Clouds Clear
Heat Index 95 °F
Dew Point 55 °F
Humidity 24%
Rainfall 0.00 in
Snow Depth 0 in , 0 in , 3 in
UV 0 out of 12
Pollen 8.30 out of 12
Ozone Good
Flu Activity Not available.
METAR KNYL 150457Z AUTO 25005KT 10SM CLR 36/13 A2970 RMK AO2 SLP052 T03610128

More Conditions Fewer Conditions

10-Day Weather Forecast

Almanac

Astronomy

Sep. 14, 2014 Rise Set
Actual Time 6:21 AM PDT 6:46 PM PDT
Civil Twilight 5:56 AM PDT 7:11 PM PDT
Nautical Twilight 5:26 AM PDT 7:40 PM PDT
Astronomical Twilight 4:57 AM PDT 8:09 PM PDT
Moon 10:58 PM PDT (9/14) 12:14 PM PDT (9/14)
Length of Visible Light 13h 14m
Length of Day
12h 24m
Tomorrow will be 2m 3s shorter.
Waning Gibbous, 59% of the Moon is Illuminated
Sep 15
Waning Gibbous
Sep 15
Last Quarter
Sep 24
New
Oct 1
First Quarter
Oct 8
Full

Yesterday's Extremes

State Highs State Lows

Community

WunderPhotos

Upload Photos

1,753,414 photos uploaded!

Nearby

Air Quality

  Air Quality AQ Index Pollutant
Yesterday Moderate
OZONE
Yesterday Good
PM10
Current Good
OZONE
Monday Moderate
OZONE
Monday Good
PM10
Monday Good
CO
Monday Good
NO2

Snow Depth

Station Depth Elevation
Adin Mountain 0 in 6200 ft
Leavitt Lake 0 in 9400 ft
Hagan's Meadow 0 in 8000 ft
CSS Lab 3 in 6900 ft
Spratt Creek 0 in 6200 ft

Earthquake Activity

City Distance Mag. Time & Date
No recent earthquake activity has been reported nearby.
Minimum magnitude displayed is 2.5.

Coastal Water Temperatures

Place Temperature
No Stations Reporting

Nearby Weather Stations